createdAt,value
2023-02-27T08:27:35.111Z,99.90
2023-02-27T08:30:01.797Z,99.90
2023-02-27T08:32:28.690Z,99.90
2023-02-27T08:34:55.331Z,99.90
2023-02-27T08:37:22.013Z,99.90
2023-02-27T08:39:48.736Z,99.90
2023-02-27T08:42:15.421Z,99.90
2023-02-27T08:44:42.322Z,99.90
2023-02-27T08:47:09.271Z,99.90
2023-02-27T08:49:36.046Z,99.90
2023-02-27T08:52:04.067Z,99.90
2023-02-27T08:54:30.781Z,99.90
2023-02-27T08:56:57.414Z,99.90
2023-02-27T08:59:24.150Z,99.90
2023-02-27T09:01:50.789Z,99.90
2023-02-27T09:04:17.405Z,99.90
2023-02-27T09:06:44.027Z,99.90
2023-02-27T09:09:10.669Z,99.90
2023-02-27T09:11:38.785Z,99.90
2023-02-27T09:14:06.222Z,99.90
2023-02-27T09:16:33.051Z,99.90
2023-02-27T09:19:00.165Z,99.90
2023-02-27T09:21:27.444Z,99.90
2023-02-27T09:23:54.926Z,99.90
2023-02-27T09:26:32.137Z,99.90
2023-02-27T09:29:07.636Z,99.90
2023-02-27T09:31:34.713Z,99.90
2023-02-27T09:34:01.635Z,99.90
2023-02-27T09:36:28.839Z,99.90
2023-02-27T09:38:55.815Z,99.90
2023-02-27T09:41:39.547Z,99.90
2023-02-27T09:44:36.397Z,99.90
2023-02-27T09:47:18.105Z,99.90
2023-02-27T09:50:03.543Z,99.90
2023-02-27T09:52:32.972Z,99.90
2023-02-27T09:55:00.432Z,99.90
2023-02-27T09:57:26.997Z,99.90
2023-02-27T10:00:27.597Z,99.90
2023-02-27T10:03:08.452Z,99.40
2023-02-27T10:06:14.462Z,99.20
2023-02-27T10:08:59.297Z,99.80
2023-02-27T10:11:43.583Z,97.10
2023-02-27T10:14:25.947Z,95.00
2023-02-27T10:16:54.046Z,94.90
2023-02-27T10:19:28.631Z,94.30
2023-02-27T10:21:56.550Z,93.60
2023-02-27T10:24:30.849Z,93.70
2023-02-27T10:27:00.846Z,91.60
2023-02-27T10:29:42.889Z,90.00
2023-02-27T10:32:22.049Z,88.60
2023-02-27T10:34:58.505Z,86.50
2023-02-27T10:37:26.647Z,83.90
2023-02-27T10:39:59.796Z,84.60
2023-02-27T10:42:31.496Z,84.50
2023-02-27T10:44:59.410Z,82.70
2023-02-27T10:47:26.622Z,84.40
2023-02-27T10:49:54.814Z,76.50
2023-02-27T10:52:22.008Z,71.90
2023-02-27T10:54:48.713Z,72.90
2023-02-27T10:57:33.481Z,72.90
2023-02-27T11:00:06.798Z,69.30
2023-02-27T11:02:40.238Z,67.10
2023-02-27T11:05:17.161Z,68.50
2023-02-27T11:07:44.582Z,73.90
2023-02-27T11:10:12.283Z,70.70
2023-02-27T11:12:40.542Z,63.30
2023-02-27T11:15:16.373Z,62.20
2023-02-27T11:17:43.734Z,62.00
2023-02-27T11:20:43.298Z,60.80
2023-02-27T11:23:15.039Z,58.80
2023-02-27T11:25:42.283Z,58.10
2023-02-27T11:28:29.787Z,57.40
2023-02-27T11:31:06.347Z,57.80
2023-02-27T11:33:39.994Z,59.40
2023-02-27T11:36:07.362Z,58.50
2023-02-27T11:38:34.775Z,58.20
2023-02-27T11:41:04.956Z,58.10
2023-02-27T11:43:34.718Z,57.60
2023-02-27T11:46:40.791Z,56.20
2023-02-27T11:49:00.398Z,55.40
2023-02-27T11:51:47.910Z,55.00
2023-02-27T11:54:57.942Z,55.30
2023-02-27T11:57:39.388Z,54.30
2023-02-27T12:00:16.241Z,53.60
2023-02-27T12:02:53.289Z,54.20
2023-02-27T12:05:30.438Z,53.80
2023-02-27T12:08:26.224Z,53.30
2023-02-27T12:11:12.898Z,53.70
2023-02-27T12:13:45.320Z,52.20
2023-02-27T12:16:27.225Z,51.60
2023-02-27T12:19:12.604Z,52.30
2023-02-27T12:21:49.517Z,51.60
2023-02-27T12:24:25.606Z,51.70
2023-02-27T12:27:16.315Z,51.30
2023-02-27T12:30:07.623Z,52.10
2023-02-27T12:32:43.710Z,51.40
2023-02-27T12:35:32.928Z,51.60
2023-02-27T12:37:59.926Z,51.10
2023-02-27T12:40:36.614Z,50.80
2023-02-27T12:43:15.570Z,49.70
2023-02-27T12:46:00.836Z,49.90
2023-02-27T12:48:51.615Z,50.70
2023-02-27T12:51:42.796Z,49.20
2023-02-27T12:54:19.936Z,49.50
2023-02-27T12:56:52.529Z,48.70
2023-02-27T12:59:40.974Z,48.00
2023-02-27T13:02:37.592Z,47.30
2023-02-27T13:05:24.031Z,47.90
2023-02-27T13:08:09.492Z,47.80
2023-02-27T13:10:50.619Z,46.90
2023-02-27T13:13:27.558Z,46.80
2023-02-27T13:16:10.772Z,45.90
2023-02-27T13:18:45.368Z,48.10
2023-02-27T13:21:12.506Z,48.40
2023-02-27T13:24:16.111Z,48.30
2023-02-27T13:26:47.935Z,50.00
2023-02-27T13:29:17.016Z,49.30
2023-02-27T13:32:12.408Z,50.70
2023-02-27T13:34:53.383Z,50.50
2023-02-27T13:37:19.980Z,50.40
2023-02-27T13:39:49.914Z,51.80
2023-02-27T13:42:26.105Z,51.70
2023-02-27T13:45:06.355Z,52.20
2023-02-27T13:47:50.042Z,51.60
2023-02-27T13:50:22.382Z,50.50
2023-02-27T13:52:49.397Z,50.70
2023-02-27T13:55:35.349Z,49.40
2023-02-27T13:58:03.394Z,50.60
2023-02-27T14:00:32.643Z,52.40
2023-02-27T14:03:18.342Z,53.30
2023-02-27T14:05:47.627Z,54.10
2023-02-27T14:08:46.377Z,54.00
2023-02-27T14:11:26.461Z,53.80
2023-02-27T14:13:57.655Z,54.30
2023-02-27T14:16:44.137Z,52.90
2023-02-27T14:19:19.788Z,50.10
2023-02-27T14:21:50.099Z,49.60
2023-02-27T14:24:22.401Z,50.00
2023-02-27T14:26:52.082Z,48.60
2023-02-27T14:29:30.944Z,49.10
2023-02-27T14:32:04.296Z,50.60
2023-02-27T14:34:31.441Z,49.50
2023-02-27T14:37:02.209Z,48.50
2023-02-27T14:39:35.640Z,49.10
2023-02-27T14:42:17.701Z,47.90
2023-02-27T14:44:47.631Z,48.30
2023-02-27T14:47:29.460Z,49.40
2023-02-27T14:49:56.225Z,49.50
2023-02-27T14:52:31.339Z,48.60
2023-02-27T14:55:14.590Z,47.80
2023-02-27T14:57:52.822Z,47.90
2023-02-27T15:00:35.645Z,47.60
2023-02-27T15:03:24.651Z,47.40
2023-02-27T15:05:58.757Z,46.90
2023-02-27T15:08:28.823Z,47.50
2023-02-27T15:10:57.825Z,47.30
2023-02-27T15:13:31.225Z,48.00
2023-02-27T15:16:35.850Z,49.00
2023-02-27T15:19:17.245Z,47.30
2023-02-27T15:21:52.920Z,48.20
2023-02-27T15:24:40.628Z,49.20
2023-02-27T15:27:21.929Z,49.80
2023-02-27T15:29:54.895Z,50.20
2023-02-27T15:32:41.465Z,50.20
2023-02-27T15:35:17.598Z,49.70
2023-02-27T15:37:53.179Z,49.80
2023-02-27T15:40:23.671Z,49.10
2023-02-27T15:42:51.779Z,48.50
2023-02-27T15:45:20.460Z,48.60
2023-02-27T15:47:47.932Z,49.60
2023-02-27T15:50:17.623Z,49.30
2023-02-27T15:52:58.691Z,49.50
2023-02-27T15:55:29.139Z,48.50
2023-02-27T15:58:02.783Z,49.60
2023-02-27T16:00:31.862Z,49.60
2023-02-27T16:02:59.531Z,50.10
2023-02-27T16:05:41.528Z,50.70
2023-02-27T16:08:16.263Z,51.30
2023-02-27T16:10:44.939Z,51.90
2023-02-27T16:13:27.783Z,52.10
2023-02-27T16:16:06.815Z,52.50
2023-02-27T16:18:35.364Z,52.70
2023-02-27T16:21:13.148Z,53.40
2023-02-27T16:23:40.298Z,53.30
2023-02-27T16:26:27.453Z,53.70
2023-02-27T16:29:00.001Z,53.50
2023-02-27T16:31:30.637Z,54.10
2023-02-27T16:34:00.448Z,54.80
2023-02-27T16:36:32.603Z,54.80
2023-02-27T16:38:59.453Z,54.80
2023-02-27T16:41:27.369Z,55.10
2023-02-27T16:43:54.426Z,55.60
2023-02-27T16:46:21.584Z,55.30
2023-02-27T16:48:57.171Z,57.20
2023-02-27T16:51:28.597Z,56.50
2023-02-27T16:53:56.799Z,57.40
2023-02-27T16:56:37.787Z,58.10
2023-02-27T16:59:05.542Z,57.40
2023-02-27T17:01:34.053Z,58.10
2023-02-27T17:04:01.268Z,57.50
2023-02-27T17:06:28.509Z,58.30
2023-02-27T17:08:56.042Z,58.30
2023-02-27T17:11:23.169Z,58.90
2023-02-27T17:13:49.882Z,58.90
2023-02-27T17:16:16.712Z,59.00
2023-02-27T17:18:43.395Z,60.00
2023-02-27T17:21:10.158Z,59.60
2023-02-27T17:23:36.808Z,60.00
2023-02-27T17:26:04.425Z,60.20
2023-02-27T17:28:31.129Z,60.90
2023-02-27T17:30:58.036Z,60.80
2023-02-27T17:33:24.732Z,61.10
2023-02-27T17:35:52.885Z,61.60
2023-02-27T17:38:19.666Z,61.80
2023-02-27T17:40:46.442Z,61.70
2023-02-27T17:43:13.095Z,63.00
2023-02-27T17:45:40.085Z,63.80
2023-02-27T17:48:06.772Z,63.50
2023-02-27T17:50:34.444Z,64.40
2023-02-27T17:53:01.021Z,64.40
2023-02-27T17:55:27.622Z,64.40
2023-02-27T17:57:54.290Z,65.40
2023-02-27T18:00:21.479Z,66.80
2023-02-27T18:02:48.303Z,66.80
2023-02-27T18:05:15.244Z,72.30
2023-02-27T18:07:41.825Z,74.40
2023-02-27T18:10:10.064Z,72.20
2023-02-27T18:12:37.249Z,77.50
2023-02-27T18:15:05.131Z,80.00
2023-02-27T18:17:31.821Z,79.80
2023-02-27T18:19:58.487Z,80.90
2023-02-27T18:22:25.733Z,83.30
2023-02-27T18:24:53.896Z,83.60
2023-02-27T18:27:22.466Z,85.00
2023-02-27T18:29:52.070Z,86.50
2023-02-27T18:32:19.016Z,88.30
2023-02-27T18:34:46.001Z,89.30
2023-02-27T18:37:12.733Z,90.50
2023-02-27T18:39:39.468Z,91.00
2023-02-27T18:42:06.897Z,91.40
2023-02-27T18:44:33.693Z,91.30
2023-02-27T18:47:00.506Z,91.50
2023-02-27T18:49:27.166Z,92.10
2023-02-27T18:51:55.381Z,92.30
2023-02-27T18:54:22.177Z,93.20
2023-02-27T18:56:51.020Z,93.20
2023-02-27T18:59:17.931Z,92.50
2023-02-27T19:01:45.109Z,93.10
2023-02-27T19:04:13.674Z,93.60
2023-02-27T19:06:42.192Z,94.30
2023-02-27T19:09:12.826Z,94.30
2023-02-27T19:11:40.370Z,94.30
2023-02-27T19:14:10.430Z,94.70
2023-02-27T19:16:37.291Z,94.80
2023-02-27T19:19:05.107Z,95.20
2023-02-27T19:21:32.712Z,95.20
2023-02-27T19:24:00.268Z,95.30
2023-02-27T19:26:27.524Z,95.30
2023-02-27T19:28:55.697Z,95.50
2023-02-27T19:31:25.903Z,96.00
2023-02-27T19:33:52.664Z,96.30
2023-02-27T19:36:30.665Z,96.40
2023-02-27T19:38:58.590Z,96.20
2023-02-27T19:41:25.962Z,96.30
2023-02-27T19:43:53.650Z,96.60
2023-02-27T19:46:28.744Z,96.80
2023-02-27T19:48:59.536Z,96.80
2023-02-27T19:51:26.665Z,97.00
2023-02-27T19:53:54.097Z,97.30
2023-02-27T19:56:24.939Z,97.50
2023-02-27T19:58:52.759Z,97.70
2023-02-27T20:01:33.387Z,97.90
2023-02-27T20:04:01.168Z,98.10
2023-02-27T20:06:34.463Z,98.40
2023-02-27T20:09:04.348Z,98.30
2023-02-27T20:11:31.703Z,98.10
2023-02-27T20:13:59.208Z,98.20
2023-02-27T20:16:28.995Z,98.30
2023-02-27T20:18:56.759Z,98.60
2023-02-27T20:21:24.779Z,98.60
2023-02-27T20:23:52.839Z,99.10
2023-02-27T20:26:31.831Z,98.80
2023-02-27T20:29:01.143Z,98.70
2023-02-27T20:31:31.094Z,98.90
2023-02-27T20:34:01.223Z,99.10
2023-02-27T20:36:29.005Z,99.00
2023-02-27T20:38:55.778Z,99.10
2023-02-27T20:41:23.482Z,99.20
2023-02-27T20:43:50.195Z,99.30
2023-02-27T20:46:26.299Z,99.40
2023-02-27T20:48:54.960Z,99.80
2023-02-27T20:51:25.408Z,99.90
2023-02-27T20:53:54.455Z,99.90
2023-02-27T20:56:41.428Z,99.90
2023-02-27T20:59:12.077Z,99.90
2023-02-27T21:01:39.158Z,99.90
2023-02-27T21:04:06.148Z,99.90
2023-02-27T21:06:32.923Z,99.90
2023-02-27T21:09:02.858Z,99.90
2023-02-27T21:11:31.469Z,99.90
2023-02-27T21:14:01.811Z,99.90
2023-02-27T21:16:28.596Z,99.90
2023-02-27T21:18:56.667Z,99.90
2023-02-27T21:21:26.427Z,99.90
2023-02-27T21:23:53.637Z,99.90
2023-02-27T21:26:29.390Z,99.90
2023-02-27T21:28:58.903Z,99.90
2023-02-27T21:31:29.100Z,99.90
2023-02-27T21:33:55.840Z,99.90
2023-02-27T21:36:27.387Z,99.90
2023-02-27T21:39:03.213Z,99.90
2023-02-27T21:41:30.643Z,99.90
2023-02-27T21:43:59.400Z,99.90
2023-02-27T21:46:26.202Z,99.90
2023-02-27T21:48:52.865Z,99.90
2023-02-27T21:51:33.060Z,99.90
2023-02-27T21:54:03.800Z,99.90
2023-02-27T21:56:30.929Z,99.90
2023-02-27T21:59:01.665Z,99.90
2023-02-27T22:01:29.448Z,99.90
2023-02-27T22:03:57.409Z,99.90
2023-02-27T22:06:26.859Z,99.90
2023-02-27T22:08:58.408Z,99.90
2023-02-27T22:11:26.780Z,99.90
2023-02-27T22:13:54.131Z,99.90
2023-02-27T22:16:21.656Z,99.90
2023-02-27T22:18:49.127Z,99.90
2023-02-27T22:21:22.704Z,99.90
2023-02-27T22:23:50.217Z,99.90
2023-02-27T22:26:24.156Z,99.90
2023-02-27T22:28:51.994Z,99.90
2023-02-27T22:31:21.567Z,99.90
2023-02-27T22:33:51.397Z,99.90
2023-02-27T22:36:23.863Z,99.90
2023-02-27T22:38:51.272Z,99.90
2023-02-27T22:41:21.172Z,99.90
2023-02-27T22:43:48.008Z,99.90
2023-02-27T22:46:17.389Z,99.90
2023-02-27T22:48:44.650Z,99.90
2023-02-27T22:51:14.613Z,99.90
2023-02-27T22:53:42.487Z,99.90
